sensor_id;sensor_type;location;lat;lon;timestamp;pressure;altitude;pressure_sealevel;temperature;humidity
77118;BME280;66072;50.238;19.228;2023-05-10T00:01:27;98728.37;;;6.76;58.45
77118;BME280;66072;50.238;19.228;2023-05-10T00:03:55;98728.92;;;6.68;58.86
77118;BME280;66072;50.238;19.228;2023-05-10T00:06:22;98722.73;;;6.58;58.78
77118;BME280;66072;50.238;19.228;2023-05-10T00:08:50;98726.08;;;6.47;58.67
77118;BME280;66072;50.238;19.228;2023-05-10T00:11:18;98724.64;;;6.37;58.98
77118;BME280;66072;50.238;19.228;2023-05-10T00:13:48;98722.64;;;6.28;59.48
77118;BME280;66072;50.238;19.228;2023-05-10T00:16:16;98720.67;;;6.18;59.49
77118;BME280;66072;50.238;19.228;2023-05-10T00:18:43;98722.36;;;6.05;59.49
77118;BME280;66072;50.238;19.228;2023-05-10T00:21:11;98721.84;;;5.91;59.92
77118;BME280;66072;50.238;19.228;2023-05-10T00:23:39;98721.81;;;5.76;60.75
77118;BME280;66072;50.238;19.228;2023-05-10T00:26:06;98719.55;;;5.64;60.82
77118;BME280;66072;50.238;19.228;2023-05-10T00:28:34;98718.81;;;5.52;61.34
77118;BME280;66072;50.238;19.228;2023-05-10T00:31:01;98715.84;;;5.40;62.13
77118;BME280;66072;50.238;19.228;2023-05-10T00:33:29;98718.57;;;5.31;62.02
77118;BME280;66072;50.238;19.228;2023-05-10T00:35:57;98716.23;;;5.22;62.26
77118;BME280;66072;50.238;19.228;2023-05-10T00:38:24;98713.21;;;5.11;62.39
77118;BME280;66072;50.238;19.228;2023-05-10T00:40:52;98710.85;;;5.03;62.63
77118;BME280;66072;50.238;19.228;2023-05-10T00:43:19;98715.44;;;4.94;63.14
77118;BME280;66072;50.238;19.228;2023-05-10T00:45:47;98712.93;;;4.84;63.17
77118;BME280;66072;50.238;19.228;2023-05-10T00:48:15;98711.07;;;4.74;63.63
77118;BME280;66072;50.238;19.228;2023-05-10T00:50:43;98709.55;;;4.65;63.96
77118;BME280;66072;50.238;19.228;2023-05-10T00:53:10;98705.16;;;4.55;64.04
77118;BME280;66072;50.238;19.228;2023-05-10T00:55:38;98706.51;;;4.46;64.52
77118;BME280;66072;50.238;19.228;2023-05-10T00:58:05;98702.94;;;4.38;64.62
77118;BME280;66072;50.238;19.228;2023-05-10T01:00:34;98704.27;;;4.29;65.18
77118;BME280;66072;50.238;19.228;2023-05-10T01:03:02;98707.98;;;4.20;65.48
77118;BME280;66072;50.238;19.228;2023-05-10T01:05:30;98706.42;;;4.12;66.08
77118;BME280;66072;50.238;19.228;2023-05-10T01:07:58;98701.66;;;4.03;66.19
77118;BME280;66072;50.238;19.228;2023-05-10T01:10:25;98702.26;;;3.98;66.34
77118;BME280;66072;50.238;19.228;2023-05-10T01:12:53;98699.99;;;3.92;66.60
77118;BME280;66072;50.238;19.228;2023-05-10T01:15:22;98699.76;;;3.85;67.15
77118;BME280;66072;50.238;19.228;2023-05-10T01:17:50;98697.13;;;3.80;67.98
77118;BME280;66072;50.238;19.228;2023-05-10T01:20:18;98698.74;;;3.74;67.97
77118;BME280;66072;50.238;19.228;2023-05-10T01:26:13;98695.36;;;3.62;68.02
77118;BME280;66072;50.238;19.228;2023-05-10T01:34:09;98696.79;;;3.45;68.74
77118;BME280;66072;50.238;19.228;2023-05-10T01:36:45;98698.71;;;3.41;69.04
77118;BME280;66072;50.238;19.228;2023-05-10T01:39:24;98694.55;;;3.37;69.44
77118;BME280;66072;50.238;19.228;2023-05-10T01:42:07;98692.58;;;3.33;69.50
77118;BME280;66072;50.238;19.228;2023-05-10T01:47:35;98685.42;;;3.24;69.85
77118;BME280;66072;50.238;19.228;2023-05-10T01:50:08;98680.25;;;3.19;70.15
77118;BME280;66072;50.238;19.228;2023-05-10T01:52:41;98676.56;;;3.17;70.31
77118;BME280;66072;50.238;19.228;2023-05-10T01:55:13;98675.42;;;3.14;70.46
77118;BME280;66072;50.238;19.228;2023-05-10T01:57:43;98678.65;;;3.12;70.74
77118;BME280;66072;50.238;19.228;2023-05-10T02:00:13;98678.69;;;3.09;70.60
77118;BME280;66072;50.238;19.228;2023-05-10T02:02:45;98677.89;;;3.06;70.83
77118;BME280;66072;50.238;19.228;2023-05-10T02:05:15;98673.38;;;3.03;71.14
77118;BME280;66072;50.238;19.228;2023-05-10T02:07:44;98667.66;;;3.00;71.20
77118;BME280;66072;50.238;19.228;2023-05-10T02:10:13;98666.17;;;2.98;71.26
77118;BME280;66072;50.238;19.228;2023-05-10T02:12:46;98665.35;;;2.96;71.34
77118;BME280;66072;50.238;19.228;2023-05-10T02:15:23;98666.71;;;2.94;71.44
77118;BME280;66072;50.238;19.228;2023-05-10T02:17:54;98663.88;;;2.92;71.43
77118;BME280;66072;50.238;19.228;2023-05-10T02:20:23;98657.34;;;2.87;71.65
77118;BME280;66072;50.238;19.228;2023-05-10T02:22:54;98658.73;;;2.85;71.79
77118;BME280;66072;50.238;19.228;2023-05-10T02:25:23;98657.58;;;2.82;72.01
77118;BME280;66072;50.238;19.228;2023-05-10T02:27:55;98655.42;;;2.80;72.29
77118;BME280;66072;50.238;19.228;2023-05-10T02:30:23;98655.61;;;2.78;72.47
77118;BME280;66072;50.238;19.228;2023-05-10T02:32:51;98654.61;;;2.76;72.71
77118;BME280;66072;50.238;19.228;2023-05-10T02:35:20;98652.11;;;2.74;72.64
77118;BME280;66072;50.238;19.228;2023-05-10T02:37:48;98654.17;;;2.71;72.69
77118;BME280;66072;50.238;19.228;2023-05-10T02:40:17;98651.66;;;2.69;72.83
77118;BME280;66072;50.238;19.228;2023-05-10T02:42:48;98655.09;;;2.66;73.08
77118;BME280;66072;50.238;19.228;2023-05-10T02:45:19;98656.22;;;2.68;73.31
77118;BME280;66072;50.238;19.228;2023-05-10T02:47:48;98652.52;;;2.67;73.10
77118;BME280;66072;50.238;19.228;2023-05-10T02:50:15;98655.27;;;2.64;73.30
77118;BME280;66072;50.238;19.228;2023-05-10T02:53:00;98655.30;;;2.61;73.18
77118;BME280;66072;50.238;19.228;2023-05-10T02:55:32;98657.54;;;2.57;73.38
77118;BME280;66072;50.238;19.228;2023-05-10T02:58:01;98657.41;;;2.54;73.52
77118;BME280;66072;50.238;19.228;2023-05-10T03:00:29;98654.41;;;2.51;73.87
77118;BME280;66072;50.238;19.228;2023-05-10T03:02:57;98653.39;;;2.50;73.90
77118;BME280;66072;50.238;19.228;2023-05-10T03:05:27;98655.42;;;2.51;74.11
77118;BME280;66072;50.238;19.228;2023-05-10T03:07:56;98656.77;;;2.52;73.61
77118;BME280;66072;50.238;19.228;2023-05-10T03:10:27;98655.06;;;2.51;73.84
77118;BME280;66072;50.238;19.228;2023-05-10T03:16:10;98657.06;;;2.54;74.34
77118;BME280;66072;50.238;19.228;2023-05-10T03:18:43;98655.17;;;2.56;73.89
77118;BME280;66072;50.238;19.228;2023-05-10T03:21:13;98659.21;;;2.59;74.20
77118;BME280;66072;50.238;19.228;2023-05-10T03:23:58;98654.23;;;2.65;74.60
77118;BME280;66072;50.238;19.228;2023-05-10T03:26:27;98653.17;;;2.72;74.33
77118;BME280;66072;50.238;19.228;2023-05-10T03:28:55;98654.95;;;2.75;74.15
77118;BME280;66072;50.238;19.228;2023-05-10T03:31:25;98653.59;;;2.78;73.80
77118;BME280;66072;50.238;19.228;2023-05-10T03:33:52;98654.70;;;2.82;74.02
77118;BME280;66072;50.238;19.228;2023-05-10T03:36:20;98653.63;;;2.87;73.97
77118;BME280;66072;50.238;19.228;2023-05-10T03:38:48;98653.55;;;2.93;73.91
77118;BME280;66072;50.238;19.228;2023-05-10T03:41:15;98654.33;;;2.98;73.66
77118;BME280;66072;50.238;19.228;2023-05-10T03:43:43;98655.44;;;3.04;73.64
77118;BME280;66072;50.238;19.228;2023-05-10T03:46:10;98652.48;;;3.10;73.70
77118;BME280;66072;50.238;19.228;2023-05-10T03:48:38;98651.91;;;3.16;73.52
77118;BME280;66072;50.238;19.228;2023-05-10T03:51:06;98653.69;;;3.21;73.50
77118;BME280;66072;50.238;19.228;2023-05-10T03:53:33;98652.24;;;3.28;73.45
77118;BME280;66072;50.238;19.228;2023-05-10T03:56:01;98653.16;;;3.35;73.37
77118;BME280;66072;50.238;19.228;2023-05-10T03:58:28;98654.02;;;3.45;73.55
77118;BME280;66072;50.238;19.228;2023-05-10T04:00:56;98653.54;;;3.56;73.20
77118;BME280;66072;50.238;19.228;2023-05-10T04:03:23;98652.04;;;3.65;73.31
77118;BME280;66072;50.238;19.228;2023-05-10T04:06:01;98655.10;;;3.73;72.95
77118;BME280;66072;50.238;19.228;2023-05-10T04:08:29;98657.48;;;3.84;72.81
77118;BME280;66072;50.238;19.228;2023-05-10T04:11:11;98652.95;;;3.91;72.64
77118;BME280;66072;50.238;19.228;2023-05-10T04:13:39;98656.19;;;4.00;72.35
77118;BME280;66072;50.238;19.228;2023-05-10T04:16:06;98648.77;;;4.08;72.34
77118;BME280;66072;50.238;19.228;2023-05-10T04:18:34;98651.67;;;4.16;72.40
77118;BME280;66072;50.238;19.228;2023-05-10T04:21:02;98654.88;;;4.27;72.26
77118;BME280;66072;50.238;19.228;2023-05-10T04:23:29;98657.08;;;4.36;72.30
77118;BME280;66072;50.238;19.228;2023-05-10T04:26:00;98655.90;;;4.44;72.16
77118;BME280;66072;50.238;19.228;2023-05-10T04:28:28;98658.10;;;4.54;71.98
77118;BME280;66072;50.238;19.228;2023-05-10T04:31:07;98657.17;;;4.67;72.17
77118;BME280;66072;50.238;19.228;2023-05-10T04:33:35;98657.70;;;4.82;72.21
77118;BME280;66072;50.238;19.228;2023-05-10T04:36:03;98658.47;;;4.95;71.80
77118;BME280;66072;50.238;19.228;2023-05-10T04:38:31;98658.90;;;5.07;71.77
77118;BME280;66072;50.238;19.228;2023-05-10T04:41:09;98661.20;;;5.18;71.57
77118;BME280;66072;50.238;19.228;2023-05-10T04:43:38;98662.61;;;5.31;71.08
77118;BME280;66072;50.238;19.228;2023-05-10T04:46:06;98661.86;;;5.42;70.79
77118;BME280;66072;50.238;19.228;2023-05-10T04:48:33;98663.61;;;5.54;70.21
77118;BME280;66072;50.238;19.228;2023-05-10T04:51:01;98658.25;;;5.66;70.66
77118;BME280;66072;50.238;19.228;2023-05-10T04:53:28;98658.61;;;5.79;70.76
77118;BME280;66072;50.238;19.228;2023-05-10T04:55:56;98659.83;;;6.00;69.76
77118;BME280;66072;50.238;19.228;2023-05-10T04:58:24;98657.56;;;6.23;69.37
77118;BME280;66072;50.238;19.228;2023-05-10T05:00:51;98657.66;;;6.45;68.59
77118;BME280;66072;50.238;19.228;2023-05-10T05:03:19;98659.64;;;6.66;68.06
77118;BME280;66072;50.238;19.228;2023-05-10T05:05:47;98658.23;;;6.85;67.66
77118;BME280;66072;50.238;19.228;2023-05-10T05:08:14;98657.70;;;7.04;66.21
77118;BME280;66072;50.238;19.228;2023-05-10T05:10:42;98656.92;;;7.24;65.64
77118;BME280;66072;50.238;19.228;2023-05-10T05:13:09;98657.98;;;7.41;65.27
77118;BME280;66072;50.238;19.228;2023-05-10T05:15:37;98652.22;;;7.56;64.53
77118;BME280;66072;50.238;19.228;2023-05-10T05:18:04;98649.42;;;7.69;64.76
77118;BME280;66072;50.238;19.228;2023-05-10T05:20:33;98646.61;;;7.82;64.31
77118;BME280;66072;50.238;19.228;2023-05-10T05:23:01;98643.46;;;7.95;63.74
77118;BME280;66072;50.238;19.228;2023-05-10T05:25:28;98639.36;;;8.06;62.89
77118;BME280;66072;50.238;19.228;2023-05-10T05:27:56;98641.78;;;8.20;62.89
77118;BME280;66072;50.238;19.228;2023-05-10T05:30:23;98646.30;;;8.32;62.86
77118;BME280;66072;50.238;19.228;2023-05-10T05:32:51;98641.66;;;8.44;62.26
77118;BME280;66072;50.238;19.228;2023-05-10T05:35:18;98643.75;;;8.57;61.37
77118;BME280;66072;50.238;19.228;2023-05-10T05:37:46;98648.64;;;8.69;61.16
77118;BME280;66072;50.238;19.228;2023-05-10T05:40:14;98647.33;;;8.81;60.89
77118;BME280;66072;50.238;19.228;2023-05-10T05:42:41;98647.69;;;8.95;60.62
77118;BME280;66072;50.238;19.228;2023-05-10T05:45:09;98649.60;;;9.07;60.01
77118;BME280;66072;50.238;19.228;2023-05-10T05:47:37;98648.95;;;9.20;59.65
77118;BME280;66072;50.238;19.228;2023-05-10T05:50:05;98646.77;;;9.32;59.13
77118;BME280;66072;50.238;19.228;2023-05-10T05:52:33;98649.10;;;9.47;58.93
77118;BME280;66072;50.238;19.228;2023-05-10T05:55:04;98644.48;;;9.61;58.42
77118;BME280;66072;50.238;19.228;2023-05-10T05:57:31;98646.48;;;9.75;57.87
77118;BME280;66072;50.238;19.228;2023-05-10T05:59:59;98644.40;;;9.88;58.06
77118;BME280;66072;50.238;19.228;2023-05-10T06:02:26;98642.89;;;10.00;57.07
77118;BME280;66072;50.238;19.228;2023-05-10T06:04:54;98645.92;;;10.13;57.28
77118;BME280;66072;50.238;19.228;2023-05-10T06:07:22;98641.78;;;10.27;55.96
77118;BME280;66072;50.238;19.228;2023-05-10T06:09:49;98643.07;;;10.41;55.67
77118;BME280;66072;50.238;19.228;2023-05-10T06:12:17;98644.34;;;10.55;55.24
77118;BME280;66072;50.238;19.228;2023-05-10T06:14:44;98639.40;;;10.66;55.12
77118;BME280;66072;50.238;19.228;2023-05-10T06:17:12;98641.80;;;10.78;54.38
77118;BME280;66072;50.238;19.228;2023-05-10T06:19:39;98643.85;;;10.89;54.39
77118;BME280;66072;50.238;19.228;2023-05-10T06:22:07;98645.67;;;11.02;53.97
77118;BME280;66072;50.238;19.228;2023-05-10T06:24:35;98648.55;;;11.14;53.42
77118;BME280;66072;50.238;19.228;2023-05-10T06:27:02;98649.25;;;11.25;53.39
77118;BME280;66072;50.238;19.228;2023-05-10T06:29:30;98650.02;;;11.34;53.06
77118;BME280;66072;50.238;19.228;2023-05-10T06:31:58;98652.64;;;11.44;52.56
77118;BME280;66072;50.238;19.228;2023-05-10T06:34:25;98650.24;;;11.55;51.69
77118;BME280;66072;50.238;19.228;2023-05-10T06:36:53;98650.54;;;11.66;50.82
77118;BME280;66072;50.238;19.228;2023-05-10T06:39:20;98649.44;;;11.79;50.67
77118;BME280;66072;50.238;19.228;2023-05-10T06:41:48;98645.02;;;11.93;50.77
77118;BME280;66072;50.238;19.228;2023-05-10T06:44:16;98641.89;;;12.07;50.21
77118;BME280;66072;50.238;19.228;2023-05-10T06:46:43;98637.52;;;12.26;49.12
77118;BME280;66072;50.238;19.228;2023-05-10T06:49:11;98640.52;;;12.41;48.21
77118;BME280;66072;50.238;19.228;2023-05-10T06:51:38;98636.37;;;12.59;48.56
77118;BME280;66072;50.238;19.228;2023-05-10T06:54:06;98632.33;;;12.73;46.23
77118;BME280;66072;50.238;19.228;2023-05-10T06:56:33;98632.83;;;12.83;46.70
77118;BME280;66072;50.238;19.228;2023-05-10T06:59:01;98635.09;;;12.93;46.39
77118;BME280;66072;50.238;19.228;2023-05-10T07:01:29;98635.55;;;13.03;45.63
77118;BME280;66072;50.238;19.228;2023-05-10T07:03:56;98634.54;;;13.16;45.38
77118;BME280;66072;50.238;19.228;2023-05-10T07:06:24;98629.61;;;13.25;44.82
77118;BME280;66072;50.238;19.228;2023-05-10T07:09:00;98628.05;;;13.34;45.37
77118;BME280;66072;50.238;19.228;2023-05-10T07:11:28;98624.80;;;13.43;45.28
77118;BME280;66072;50.238;19.228;2023-05-10T07:13:55;98627.36;;;13.53;43.83
77118;BME280;66072;50.238;19.228;2023-05-10T07:16:23;98624.38;;;13.60;43.26
77118;BME280;66072;50.238;19.228;2023-05-10T07:18:51;98628.00;;;13.69;43.08
77118;BME280;66072;50.238;19.228;2023-05-10T07:21:18;98632.45;;;13.79;43.02
77118;BME280;66072;50.238;19.228;2023-05-10T07:23:46;98633.22;;;13.86;42.61
77118;BME280;66072;50.238;19.228;2023-05-10T07:26:14;98631.29;;;13.93;42.05
77118;BME280;66072;50.238;19.228;2023-05-10T07:28:41;98628.98;;;14.03;42.34
77118;BME280;66072;50.238;19.228;2023-05-10T07:31:09;98629.23;;;14.14;44.06
77118;BME280;66072;50.238;19.228;2023-05-10T07:33:37;98628.14;;;14.24;42.54
77118;BME280;66072;50.238;19.228;2023-05-10T07:36:05;98628.42;;;14.30;41.76
77118;BME280;66072;50.238;19.228;2023-05-10T07:38:32;98629.15;;;14.41;41.39
77118;BME280;66072;50.238;19.228;2023-05-10T07:41:00;98629.16;;;14.50;41.12
77118;BME280;66072;50.238;19.228;2023-05-10T07:43:27;98627.08;;;14.57;42.69
77118;BME280;66072;50.238;19.228;2023-05-10T07:45:55;98624.75;;;14.66;41.04
77118;BME280;66072;50.238;19.228;2023-05-10T07:48:23;98631.21;;;14.76;40.51
77118;BME280;66072;50.238;19.228;2023-05-10T07:50:50;98627.27;;;14.87;41.66
77118;BME280;66072;50.238;19.228;2023-05-10T07:53:18;98629.02;;;15.00;41.51
77118;BME280;66072;50.238;19.228;2023-05-10T07:55:50;98623.80;;;15.15;40.98
77118;BME280;66072;50.238;19.228;2023-05-10T07:58:20;98624.12;;;15.26;40.00
77118;BME280;66072;50.238;19.228;2023-05-10T08:00:48;98622.96;;;15.37;38.62
77118;BME280;66072;50.238;19.228;2023-05-10T08:03:15;98618.13;;;15.42;38.94
77118;BME280;66072;50.238;19.228;2023-05-10T08:05:43;98615.86;;;15.48;38.41
77118;BME280;66072;50.238;19.228;2023-05-10T08:08:11;98618.80;;;15.53;37.28
77118;BME280;66072;50.238;19.228;2023-05-10T08:10:38;98618.15;;;15.61;37.96
77118;BME280;66072;50.238;19.228;2023-05-10T08:13:06;98620.04;;;15.69;38.03
77118;BME280;66072;50.238;19.228;2023-05-10T08:15:33;98621.54;;;15.78;37.34
77118;BME280;66072;50.238;19.228;2023-05-10T08:18:01;98616.59;;;15.82;36.83
77118;BME280;66072;50.238;19.228;2023-05-10T08:20:29;98613.98;;;15.88;36.23
77118;BME280;66072;50.238;19.228;2023-05-10T08:22:56;98615.84;;;15.99;37.30
77118;BME280;66072;50.238;19.228;2023-05-10T08:25:24;98612.91;;;16.06;36.90
77118;BME280;66072;50.238;19.228;2023-05-10T08:27:51;98614.60;;;16.18;36.24
77118;BME280;66072;50.238;19.228;2023-05-10T08:30:19;98618.44;;;16.27;37.02
77118;BME280;66072;50.238;19.228;2023-05-10T08:32:47;98619.29;;;16.40;36.00
77118;BME280;66072;50.238;19.228;2023-05-10T08:35:15;98618.73;;;16.48;35.65
77118;BME280;66072;50.238;19.228;2023-05-10T08:37:43;98619.77;;;16.56;35.62
77118;BME280;66072;50.238;19.228;2023-05-10T08:40:11;98614.97;;;16.63;34.79
77118;BME280;66072;50.238;19.228;2023-05-10T08:42:41;98615.55;;;16.70;35.13
77118;BME280;66072;50.238;19.228;2023-05-10T08:45:11;98614.30;;;16.76;34.87
77118;BME280;66072;50.238;19.228;2023-05-10T08:47:39;98616.77;;;16.82;34.31
77118;BME280;66072;50.238;19.228;2023-05-10T08:50:07;98614.88;;;16.84;34.05
77118;BME280;66072;50.238;19.228;2023-05-10T08:52:38;98610.98;;;16.86;34.32
77118;BME280;66072;50.238;19.228;2023-05-10T08:55:06;98613.44;;;16.90;33.76
77118;BME280;66072;50.238;19.228;2023-05-10T08:57:33;98615.84;;;17.03;33.59
77118;BME280;66072;50.238;19.228;2023-05-10T09:00:01;98617.40;;;17.12;33.82
77118;BME280;66072;50.238;19.228;2023-05-10T09:02:29;98620.08;;;17.19;34.60
77118;BME280;66072;50.238;19.228;2023-05-10T09:04:57;98616.42;;;17.27;35.16
77118;BME280;66072;50.238;19.228;2023-05-10T09:07:25;98614.62;;;17.37;35.10
77118;BME280;66072;50.238;19.228;2023-05-10T09:09:53;98614.13;;;17.49;34.30
77118;BME280;66072;50.238;19.228;2023-05-10T09:12:22;98614.36;;;17.60;33.14
77118;BME280;66072;50.238;19.228;2023-05-10T09:14:52;98614.52;;;17.67;33.02
77118;BME280;66072;50.238;19.228;2023-05-10T09:17:21;98616.81;;;17.76;33.78
77118;BME280;66072;50.238;19.228;2023-05-10T09:19:58;98614.39;;;17.88;34.10
77118;BME280;66072;50.238;19.228;2023-05-10T09:22:26;98607.50;;;18.04;33.90
77118;BME280;66072;50.238;19.228;2023-05-10T09:25:09;98610.25;;;18.15;33.57
77118;BME280;66072;50.238;19.228;2023-05-10T09:27:40;98608.58;;;18.33;33.49
77118;BME280;66072;50.238;19.228;2023-05-10T09:30:08;98607.28;;;18.45;33.20
77118;BME280;66072;50.238;19.228;2023-05-10T09:32:41;98606.02;;;18.53;32.91
77118;BME280;66072;50.238;19.228;2023-05-10T09:35:13;98606.21;;;18.59;32.09
77118;BME280;66072;50.238;19.228;2023-05-10T09:37:43;98607.86;;;18.70;32.82
77118;BME280;66072;50.238;19.228;2023-05-10T09:40:21;98606.27;;;18.90;31.46
77118;BME280;66072;50.238;19.228;2023-05-10T09:43:11;98609.19;;;19.10;32.47
77118;BME280;66072;50.238;19.228;2023-05-10T09:45:41;98604.55;;;19.40;32.01
77118;BME280;66072;50.238;19.228;2023-05-10T09:48:09;98606.67;;;19.59;30.15
77118;BME280;66072;50.238;19.228;2023-05-10T09:50:37;98608.10;;;19.78;29.88
77118;BME280;66072;50.238;19.228;2023-05-10T09:53:04;98602.97;;;20.21;30.22
77118;BME280;66072;50.238;19.228;2023-05-10T09:55:38;98607.58;;;21.45;28.92
77118;BME280;66072;50.238;19.228;2023-05-10T09:58:07;98605.81;;;22.84;26.61
77118;BME280;66072;50.238;19.228;2023-05-10T10:00:41;98602.66;;;23.97;24.70
77118;BME280;66072;50.238;19.228;2023-05-10T10:03:16;98603.62;;;25.03;24.77
77118;BME280;66072;50.238;19.228;2023-05-10T10:05:44;98601.36;;;26.05;22.84
77118;BME280;66072;50.238;19.228;2023-05-10T10:08:14;98600.59;;;26.84;21.42
77118;BME280;66072;50.238;19.228;2023-05-10T10:10:42;98598.23;;;27.59;21.61
77118;BME280;66072;50.238;19.228;2023-05-10T10:13:10;98595.73;;;28.56;20.78
77118;BME280;66072;50.238;19.228;2023-05-10T10:15:38;98599.45;;;29.37;19.04
77118;BME280;66072;50.238;19.228;2023-05-10T10:18:07;98595.21;;;29.97;19.08
77118;BME280;66072;50.238;19.228;2023-05-10T10:20:36;98590.40;;;30.63;17.61
77118;BME280;66072;50.238;19.228;2023-05-10T10:23:04;98589.74;;;30.63;16.64
77118;BME280;66072;50.238;19.228;2023-05-10T10:25:32;98585.88;;;30.77;17.06
77118;BME280;66072;50.238;19.228;2023-05-10T10:28:21;98585.73;;;31.20;16.78
77118;BME280;66072;50.238;19.228;2023-05-10T10:30:56;98585.73;;;31.88;15.88
77118;BME280;66072;50.238;19.228;2023-05-10T10:36:15;98576.60;;;32.36;15.67
77118;BME280;66072;50.238;19.228;2023-05-10T10:44:24;98563.98;;;32.85;14.74
77118;BME280;66072;50.238;19.228;2023-05-10T10:52:36;98565.89;;;33.68;13.60
77118;BME280;66072;50.238;19.228;2023-05-10T10:55:09;98566.64;;;33.98;13.61
77118;BME280;66072;50.238;19.228;2023-05-10T11:00:28;98551.19;;;33.90;14.25
77118;BME280;66072;50.238;19.228;2023-05-10T11:08:28;98559.23;;;35.98;12.04
77118;BME280;66072;50.238;19.228;2023-05-10T11:13:39;98550.77;;;36.52;11.96
77118;BME280;66072;50.238;19.228;2023-05-10T11:16:24;98548.52;;;35.69;11.52
77118;BME280;66072;50.238;19.228;2023-05-10T11:19:10;98547.41;;;35.24;12.08
77118;BME280;66072;50.238;19.228;2023-05-10T11:24:33;98548.09;;;35.64;11.81
77118;BME280;66072;50.238;19.228;2023-05-10T11:27:01;98540.64;;;33.81;13.07
77118;BME280;66072;50.238;19.228;2023-05-10T11:29:29;98540.70;;;34.81;13.69
77118;BME280;66072;50.238;19.228;2023-05-10T11:31:58;98533.96;;;34.50;12.81
77118;BME280;66072;50.238;19.228;2023-05-10T11:34:30;98528.90;;;33.33;13.91
77118;BME280;66072;50.238;19.228;2023-05-10T11:36:58;98526.04;;;34.11;13.66
77118;BME280;66072;50.238;19.228;2023-05-10T11:39:30;98528.58;;;35.76;12.49
77118;BME280;66072;50.238;19.228;2023-05-10T11:41:59;98532.37;;;37.17;11.11
77118;BME280;66072;50.238;19.228;2023-05-10T11:44:30;98528.80;;;36.60;11.53
77118;BME280;66072;50.238;19.228;2023-05-10T11:47:00;98527.14;;;36.89;11.16
77118;BME280;66072;50.238;19.228;2023-05-10T11:49:27;98525.39;;;37.73;11.10
77118;BME280;66072;50.238;19.228;2023-05-10T11:52:05;98525.23;;;38.36;10.94
77118;BME280;66072;50.238;19.228;2023-05-10T11:54:33;98528.78;;;39.31;10.24
77118;BME280;66072;50.238;19.228;2023-05-10T11:57:01;98527.67;;;39.29;10.19
77118;BME280;66072;50.238;19.228;2023-05-10T11:59:29;98521.77;;;39.35;10.80
77118;BME280;66072;50.238;19.228;2023-05-10T12:01:56;98524.98;;;39.96;9.22
77118;BME280;66072;50.238;19.228;2023-05-10T12:04:25;98521.48;;;40.14;9.00
77118;BME280;66072;50.238;19.228;2023-05-10T12:06:53;98521.64;;;39.96;9.49
77118;BME280;66072;50.238;19.228;2023-05-10T12:09:21;98525.33;;;40.07;9.74
77118;BME280;66072;50.238;19.228;2023-05-10T12:12:06;98534.45;;;39.83;9.04
77118;BME280;66072;50.238;19.228;2023-05-10T12:14:35;98521.73;;;37.32;10.27
77118;BME280;66072;50.238;19.228;2023-05-10T12:17:06;98523.53;;;34.93;11.47
77118;BME280;66072;50.238;19.228;2023-05-10T12:19:39;98520.63;;;33.23;12.73
77118;BME280;66072;50.238;19.228;2023-05-10T12:22:07;98517.71;;;33.37;13.66
77118;BME280;66072;50.238;19.228;2023-05-10T12:24:35;98518.28;;;33.39;13.11
77118;BME280;66072;50.238;19.228;2023-05-10T12:27:08;98517.13;;;31.82;14.03
77118;BME280;66072;50.238;19.228;2023-05-10T12:29:36;98514.00;;;32.25;14.19
77118;BME280;66072;50.238;19.228;2023-05-10T12:32:06;98512.59;;;34.63;13.16
77118;BME280;66072;50.238;19.228;2023-05-10T12:34:34;98511.20;;;35.47;12.65
77118;BME280;66072;50.238;19.228;2023-05-10T12:37:03;98510.23;;;37.43;11.99
77118;BME280;66072;50.238;19.228;2023-05-10T12:39:41;98510.98;;;39.37;10.22
77118;BME280;66072;50.238;19.228;2023-05-10T12:42:09;98513.39;;;40.47;9.04
77118;BME280;66072;50.238;19.228;2023-05-10T12:44:37;98510.48;;;41.11;9.05
77118;BME280;66072;50.238;19.228;2023-05-10T12:47:05;98511.30;;;41.86;8.67
77118;BME280;66072;50.238;19.228;2023-05-10T12:49:32;98509.07;;;42.40;7.52
77118;BME280;66072;50.238;19.228;2023-05-10T12:52:00;98507.96;;;42.05;7.63
77118;BME280;66072;50.238;19.228;2023-05-10T12:54:27;98506.19;;;42.21;8.27
77118;BME280;66072;50.238;19.228;2023-05-10T12:56:58;98497.81;;;42.87;8.44
77118;BME280;66072;50.238;19.228;2023-05-10T12:59:26;98501.35;;;43.69;7.51
77118;BME280;66072;50.238;19.228;2023-05-10T13:01:54;98501.38;;;43.99;7.21
77118;BME280;66072;50.238;19.228;2023-05-10T13:04:21;98499.13;;;44.49;7.04
77118;BME280;66072;50.238;19.228;2023-05-10T13:06:49;98491.16;;;44.50;6.65
77118;BME280;66072;50.238;19.228;2023-05-10T13:09:16;98494.68;;;43.62;6.82
77118;BME280;66072;50.238;19.228;2023-05-10T13:11:44;98495.80;;;43.52;7.30
77118;BME280;66072;50.238;19.228;2023-05-10T13:14:12;98495.08;;;43.76;7.17
77118;BME280;66072;50.238;19.228;2023-05-10T13:16:39;98493.63;;;44.19;7.64
77118;BME280;66072;50.238;19.228;2023-05-10T13:19:10;98487.07;;;44.90;6.87
77118;BME280;66072;50.238;19.228;2023-05-10T13:21:38;98479.04;;;45.35;6.75
77118;BME280;66072;50.238;19.228;2023-05-10T13:24:06;98476.08;;;45.87;6.63
77118;BME280;66072;50.238;19.228;2023-05-10T13:26:33;98477.35;;;46.36;6.69
77118;BME280;66072;50.238;19.228;2023-05-10T13:29:02;98476.56;;;44.84;6.20
77118;BME280;66072;50.238;19.228;2023-05-10T13:31:33;98469.48;;;42.15;6.89
77118;BME280;66072;50.238;19.228;2023-05-10T13:34:01;98468.84;;;42.40;7.59
77118;BME280;66072;50.238;19.228;2023-05-10T13:36:29;98465.34;;;43.41;7.38
77118;BME280;66072;50.238;19.228;2023-05-10T13:38:57;98467.08;;;44.49;6.89
77118;BME280;66072;50.238;19.228;2023-05-10T13:41:24;98463.99;;;45.14;6.96
77118;BME280;66072;50.238;19.228;2023-05-10T13:43:52;98465.13;;;45.96;6.66
77118;BME280;66072;50.238;19.228;2023-05-10T13:46:22;98459.35;;;45.62;6.58
77118;BME280;66072;50.238;19.228;2023-05-10T13:48:53;98455.64;;;45.10;6.75